Map

Track Data

SID SEASON NUMBER BASIN SUBBASIN NAME ISO_TIME NATURE LAT LON WMO_WIND WMO_PRES WMO_AGENCY TRACK_TYPE DIST2LAND LANDFALL IFLAG USA_AGENCY USA_ATCF_ID USA_LAT USA_LON USA_RECORD USA_STATUS USA_WIND USA_PRES USA_SSHS USA_R34_NE USA_R34_SE USA_R34_SW USA_R34_NW USA_R50_NE USA_R50_SE USA_R50_SW USA_R50_NW USA_R64_NE USA_R64_SE USA_R64_SW USA_R64_NW USA_POCI USA_ROCI USA_RMW USA_EYE TOKYO_LAT TOKYO_LON TOKYO_GRADE TOKYO_WIND TOKYO_PRES TOKYO_R50_DIR TOKYO_R50_LONG TOKYO_R50_SHORT TOKYO_R30_DIR TOKYO_R30_LONG TOKYO_R30_SHORT TOKYO_LAND CMA_LAT CMA_LON CMA_CAT CMA_WIND CMA_PRES HKO_LAT HKO_LON HKO_CAT HKO_WIND HKO_PRES NEWDELHI_LAT NEWDELHI_LON NEWDELHI_GRADE NEWDELHI_WIND NEWDELHI_PRES NEWDELHI_CI NEWDELHI_DP NEWDELHI_POCI REUNION_LAT REUNION_LON REUNION_TYPE REUNION_WIND REUNION_PRES REUNION_TNUM REUNION_CI REUNION_RMW REUNION_R34_NE REUNION_R34_SE REUNION_R34_SW REUNION_R34_NW REUNION_R50_NE REUNION_R50_SE REUNION_R50_SW REUNION_R50_NW REUNION_R64_NE REUNION_R64_SE REUNION_R64_SW REUNION_R64_NW BOM_LAT BOM_LON BOM_TYPE BOM_WIND BOM_PRES BOM_TNUM BOM_CI BOM_RMW BOM_R34_NE BOM_R34_SE BOM_R34_SW BOM_R34_NW BOM_R50_NE BOM_R50_SE BOM_R50_SW BOM_R50_NW BOM_R64_NE BOM_R64_SE BOM_R64_SW BOM_R64_NW BOM_ROCI BOM_POCI BOM_EYE BOM_POS_METHOD BOM_PRES_METHOD NADI_LAT NADI_LON NADI_CAT NADI_WIND NADI_PRES WELLINGTON_LAT WELLINGTON_LON WELLINGTON_WIND WELLINGTON_PRES DS824_LAT DS824_LON DS824_STAGE DS824_WIND DS824_PRES TD9636_LAT TD9636_LON TD9636_STAGE TD9636_WIND TD9636_PRES TD9635_LAT TD9635_LON TD9635_WIND TD9635_PRES TD9635_ROCI NEUMANN_LAT NEUMANN_LON NEUMANN_CLASS NEUMANN_WIND NEUMANN_PRES MLC_LAT MLC_LON MLC_CLASS MLC_WIND MLC_PRES USA_GUST BOM_GUST BOM_GUST_PER REUNION_GUST REUNION_GUST_PER USA_SEAHGT USA_SEARAD_NE USA_SEARAD_SE USA_SEARAD_SW USA_SEARAD_NW STORM_SPEED STORM_DIR
1863231N27293 1863 18 NA NA NOT_NAMED 1863-08-19 00:00:00 TS 26.5000 -66.6000 70 hurdat_atl main 845 841 O_____________ hurdat_atl AL031863 26.5000 -66.6000 HU 70 1 5 307
1863231N27293 1863 18 NA NA NOT_NAMED 1863-08-19 03:00:00 TS 26.6427 -66.8097 main 847 847 P_____________ AL031863 26.6427 -66.8097 HU 70 1 5 310
1863231N27293 1863 18 NA NA NOT_NAMED 1863-08-19 06:00:00 TS 26.8000 -67.0000 70 hurdat_atl main 861 861 O_____________ hurdat_atl AL031863 26.8000 -67.0000 HU 70 1 5 316
1863231N27293 1863 18 NA NA NOT_NAMED 1863-08-19 09:00:00 TS 26.9845 -67.1830 main 875 869 P_____________ AL031863 26.9845 -67.1830 HU 70 1 6 312
1863231N27293 1863 18 NA NA NOT_NAMED 1863-08-19 12:00:00 TS 27.2000 -67.5000 70 hurdat_atl main 871 855 O_____________ hurdat_atl AL031863 27.2000 -67.5000 HU 70 1 9 298
1863231N27293 1863 18 NA NA NOT_NAMED 1863-08-19 15:00:00 TS 27.4126 -68.0756 main 852 836 P_____________ AL031863 27.4126 -68.0756 HU 70 1 13 293
1863231N27293 1863 18 NA NA NOT_NAMED 1863-08-19 18:00:00 TS 27.7000 -68.8000 70 hurdat_atl main 841 836 O_____________ hurdat_atl AL031863 27.7000 -68.8000 HU 70 1 15 298
1863231N27293 1863 18 NA NA NOT_NAMED 1863-08-19 21:00:00 TS 28.1126 -69.5499 main 848 843 P_____________ AL031863 28.1126 -69.5499 HU 75 1 16 304
1863231N27293 1863 18 NA NA NOT_NAMED 1863-08-20 00:00:00 TS 28.6000 -70.3000 80 hurdat_atl main 857 811 O_____________ hurdat_atl AL031863 28.6000 -70.3000 HU 80 1 16 308
1863231N27293 1863 18 NA NA NOT_NAMED 1863-08-20 03:00:00 TS 29.0997 -70.9877 main 811 731 P_____________ AL031863 29.0997 -70.9877 HU 80 1 15 311
1863231N27293 1863 18 NA NA NOT_NAMED 1863-08-20 06:00:00 TS 29.6000 -71.6000 80 hurdat_atl main 731 666 O_____________ hurdat_atl AL031863 29.6000 -71.6000 HU 80 1 14 312
1863231N27293 1863 18 NA NA NOT_NAMED 1863-08-20 09:00:00 TS 30.0274 -72.1606 main 661 593 P_____________ AL031863 30.0274 -72.1606 HU 85 2 13 316
1863231N27293 1863 18 NA NA NOT_NAMED 1863-08-20 12:00:00 TS 30.5000 -72.6000 90 hurdat_atl main 593 523 O_____________ hurdat_atl AL031863 30.5000 -72.6000 HU 90 2 13 329
1863231N27293 1863 18 NA NA NOT_NAMED 1863-08-20 15:00:00 TS 31.1123 -72.9249 main 523 451 P_____________ AL031863 31.1123 -72.9249 HU 90 2 14 342
1863231N27293 1863 18 NA NA NOT_NAMED 1863-08-20 18:00:00 TS 31.8000 -73.1000 90 hurdat_atl main 451 398 O_____________ hurdat_atl AL031863 31.8000 -73.1000 HU 90 2 14 353
1863231N27293 1863 18 NA NA NOT_NAMED 1863-08-20 21:00:00 TS 32.4999 -73.1383 main 398 349 P_____________ AL031863 32.4999 -73.1383 HU 90 2 14 0
1863231N27293 1863 18 NA NA NOT_NAMED 1863-08-21 00:00:00 TS 33.2000 -73.1000 90 hurdat_atl main 349 310 O_____________ hurdat_atl AL031863 33.2000 -73.1000 HU 90 2 14 0
1863231N27293 1863 18 NA NA NOT_NAMED 1863-08-21 03:00:00 TS 33.8649 -73.1367 main 303 261 P_____________ AL031863 33.8649 -73.1367 HU 90 2 13 1
1863231N27293 1863 18 NA NA NOT_NAMED 1863-08-21 06:00:00 TS 34.5000 -73.1000 90 hurdat_atl main 261 243 O_____________ hurdat_atl AL031863 34.5000 -73.1000 HU 90 2 13 8
1863231N27293 1863 18 NA NA NOT_NAMED 1863-08-21 09:00:00 TS 35.0999 -72.9098 main 247 244 P_____________ AL031863 35.0999 -72.9098 HU 90 2 13 19
1863231N27293 1863 18 NA NA NOT_NAMED 1863-08-21 12:00:00 TS 35.7000 -72.6000 90 hurdat_atl main 261 260 O_____________ hurdat_atl AL031863 35.7000 -72.6000 HU 90 2 14 24
1863231N27293 1863 18 NA NA NOT_NAMED 1863-08-21 15:00:00 TS 36.3424 -72.2371 main 301 301 P_____________ AL031863 36.3424 -72.2371 HU 90 2 15 26
1863231N27293 1863 18 NA NA NOT_NAMED 1863-08-21 18:00:00 TS 37.0000 -71.8000 90 hurdat_atl main 323 318 O_____________ hurdat_atl AL031863 37.0000 -71.8000 HU 90 2 15 29
1863231N27293 1863 18 NA NA NOT_NAMED 1863-08-21 21:00:00 TS 37.6572 -71.3366 main 328 317 P_____________ AL031863 37.6572 -71.3366 HU 90 2 15 31
1863231N27293 1863 18 NA NA NOT_NAMED 1863-08-22 00:00:00 TS 38.3000 -70.8000 90 hurdat_atl main 317 292 O_____________ hurdat_atl AL031863 38.3000 -70.8000 HU 90 2 15 36
1863231N27293 1863 18 NA NA NOT_NAMED 1863-08-22 03:00:00 TS 38.8845 -70.2002 main 292 244 P_____________ AL031863 38.8845 -70.2002 HU 90 2 16 40
1863231N27293 1863 18 NA NA NOT_NAMED 1863-08-22 06:00:00 TS 39.5000 -69.5000 90 hurdat_atl main 244 199 O_____________ hurdat_atl AL031863 39.5000 -69.5000 HU 90 2 18 41
1863231N27293 1863 18 NA NA NOT_NAMED 1863-08-22 09:00:00 TS 40.2045 -68.7004 main 199 186 P_____________ AL031863 40.2045 -68.7004 HU 85 2 20 41
1863231N27293 1863 18 NA NA NOT_NAMED 1863-08-22 12:00:00 TS 41.0000 -67.8000 80 975 hurdat_atl main 198 198 O_____________ hurdat_atl AL031863 41.0000 -67.8000 HU 80 975 1 22 40
1863231N27293 1863 18 NA NA NOT_NAMED 1863-08-22 15:00:00 TS 41.8843 -66.8362 main 199 90 P_____________ AL031863 41.8843 -66.8362 HU 80 1 23 40
1863231N27293 1863 18 NA NA NOT_NAMED 1863-08-22 18:00:00 TS 42.8000 -65.8000 80 hurdat_atl main 78 19 O_____________ hurdat_atl AL031863 42.8000 -65.8000 HU 80 1 24 41
1863231N27293 1863 18 NA NA NOT_NAMED 1863-08-22 21:00:00 TS 43.6724 -64.6914 main 13 0 P_____________ AL031863 43.6724 -64.6914 HU 75 1 23 43
1863231N27293 1863 18 NA NA NOT_NAMED 1863-08-23 00:00:00 TS 44.5000 -63.6000 70 hurdat_atl main 0 0 O_____________ hurdat_atl AL031863 44.5000 -63.6000 HU 70 1 22 43
1863231N27293 1863 18 NA NA NOT_NAMED 1863-08-23 03:00:00 TS 45.2683 -62.6184 main 0 0 P_____________ AL031863 45.2683 -62.6184 HU 65 1 20 42
1863231N27293 1863 18 NA NA NOT_NAMED 1863-08-23 06:00:00 TS 46.0000 -61.7000 60 hurdat_atl main 7 O_____________ hurdat_atl AL031863 46.0000 -61.7000 TS 60 0 19 41

About IBTrACS Database

This database is a web-friendly format of International Best Track Archive for Climate Stewardship (IBTrACS), a global best track data archive curated by NOAA dating back to 1842.

Updated: 2021-11-26